Aérodrome :
LOGIN :

S'inscrire | Disclaimer

   EN    FR    IT 

 










Légende :    VFR   VFR Marginal   IFR   IFR Intensif   IFR Très Intensif
Visi : 
Plafond : 
>= 8 km
>= 3000ft
5 à 8 km
1000 à 3000 ft
1500m à 5 km
500 à 1000 ft
800 à 1500m
200 à 500 ft
< 800m
< 200 ft
Symboles :   Orages  Brouillard  Fortes neiges  Fortes précipitations  Vent > 20 kt
SIGMETs :   Divers  Orages  Givrage  Turbulence  Onde Orograph.  Cendres Volcan.






- Altitude de l'aérodrome : 25 ft
- Code IATA : QCY


EGXC - RAF Coningsby

DERNIER METAR :
  • 232250Z 25004KT 3000 BR OVC011 06/06 Q1025 RMK YLO1

METARs EXPIRÉS :
  • 232220Z 25004KT 2500 BR OVC008 06/06 Q1026 RMK YLO1
  • 232150Z 26003KT 2000 BR OVC007 06/06 Q1026 RMK YLO2
  • 232050Z 24003KT 0100 FG VV/// 06/06 Q1026 RMK RED

TAF COR TAF EGXC
Valide du 23 à 21h jusqu'au 24 à 15h UTC


232133Z 2321/2415 25004KT 4000 BR BKN008
TEMPO 2321/2409 2000 BKN003
PROB30
TEMPO 2321/2409 0200 FG OVC000
BECMG 2409/2412 8000 HZ BKN030
PROB30
TEMPO 2412/2415 SCT015



MET'MAP, la Météo Aéronautique d'un coup d'oeil ! - Copyright ORBIFLY Décembre 2007 - Disclaimer

ORBIFLY MET'MAP TEAM :

Programmation & Développement : Alexandra Zaïnal
Sur une idée originale de : Baudouin d'Aumeries
Assistance à la programmation : Marc-Olivier Méhu
Soutien technique & logistique : Manuel Goepfert

Contact : metmap@orbifly.com




SOURCES & CREDITS :

   NOAA